Time;durP1;ratioP1;P1;durP2;ratioP2;P2;SDS_P1;SDS_P2;PMS_P1;PMS_P2;Temp;Humidity;BMP_temperature;BMP_pressure;BME280_temperature;BME280_humidity;BME280_pressure;Samples;Min_cycle;Max_cycle;Signal;HPM_P1;HPM_P2
2024/01/14 00:02:04;;;;;;;43.97;22.08;;;;;0.60;98573.00;;;;5071185;28;20056;-67
2024/01/14 00:04:31;;;;;;;47.25;24.05;;;;;0.60;98566.00;;;;5070496;28;20079;-67
2024/01/14 00:06:57;;;;;;;51.33;24.20;;;;;0.60;98566.00;;;;5071068;28;20139;-68
2024/01/14 00:09:24;;;;;;;50.47;23.55;;;;;0.70;98561.00;;;;5072495;28;20402;-67
2024/01/14 00:11:51;;;;;;;47.10;23.02;;;;;0.60;98573.00;;;;5072443;28;20041;-68
2024/01/14 00:14:18;;;;;;;50.67;23.60;;;;;0.60;98566.00;;;;5070286;28;20110;-70
2024/01/14 00:16:47;;;;;;;49.05;22.25;;;;;0.50;98564.00;;;;5072197;28;20503;-68
2024/01/14 00:19:15;;;;;;;43.80;20.75;;;;;0.50;98558.00;;;;5072140;28;20052;-68
2024/01/14 00:21:42;;;;;;;46.85;22.08;;;;;0.50;98558.00;;;;5071190;28;20140;-68
2024/01/14 00:24:08;;;;;;;44.05;23.10;;;;;0.50;98550.00;;;;5071613;28;20090;-67
2024/01/14 00:26:35;;;;;;;49.15;23.20;;;;;0.40;98538.00;;;;5072345;28;20048;-67
2024/01/14 00:29:02;;;;;;;49.67;23.00;;;;;0.40;98540.00;;;;5070861;28;20055;-68
2024/01/14 00:31:29;;;;;;;50.78;23.30;;;;;0.50;98531.00;;;;5070790;28;20045;-67
2024/01/14 00:33:56;;;;;;;42.05;21.67;;;;;0.50;98540.00;;;;5070053;28;20048;-67
2024/01/14 00:36:22;;;;;;;43.53;22.38;;;;;0.30;98526.00;;;;5072185;28;20401;-67
2024/01/14 00:38:49;;;;;;;51.80;24.90;;;;;0.30;98519.00;;;;5070737;28;20166;-67
2024/01/14 00:41:16;;;;;;;45.28;22.83;;;;;0.30;98506.00;;;;5071691;28;20044;-67
2024/01/14 00:43:43;;;;;;;46.92;23.73;;;;;0.30;98503.00;;;;5053037;28;20076;-68
2024/01/14 00:46:10;;;;;;;50.33;23.67;;;;;0.40;98498.00;;;;5072083;28;20044;-66
2024/01/14 00:48:36;;;;;;;47.45;23.23;;;;;0.30;98505.00;;;;5053951;28;20051;-65
2024/01/14 00:51:03;;;;;;;49.90;22.65;;;;;0.30;98497.00;;;;5070711;28;20457;-67
2024/01/14 00:53:30;;;;;;;49.08;23.83;;;;;0.30;98500.00;;;;5069986;28;20091;-66
2024/01/14 00:55:57;;;;;;;50.83;23.75;;;;;0.20;98488.00;;;;5071509;28;20043;-65
2024/01/14 00:58:23;;;;;;;49.60;24.98;;;;;0.20;98473.00;;;;5053795;28;20131;-66
2024/01/14 01:00:50;;;;;;;47.42;23.02;;;;;0.20;98485.00;;;;5070400;28;20508;-66
2024/01/14 01:03:17;;;;;;;50.70;24.95;;;;;0.30;98477.00;;;;5070496;28;20059;-67
2024/01/14 01:05:43;;;;;;;46.97;22.83;;;;;0.30;98474.00;;;;5070847;28;20044;-66
2024/01/14 01:08:10;;;;;;;46.53;22.98;;;;;0.30;98469.00;;;;5071732;28;20359;-67
2024/01/14 01:10:36;;;;;;;45.33;23.10;;;;;0.30;98462.00;;;;5070400;28;20052;-66
2024/01/14 01:13:03;;;;;;;49.83;22.80;;;;;0.20;98459.00;;;;5071679;28;20170;-67
2024/01/14 01:15:30;;;;;;;46.78;21.98;;;;;0.00;98460.00;;;;5069751;28;20474;-65
2024/01/14 01:17:56;;;;;;;48.65;22.63;;;;;0.00;98462.00;;;;5070169;28;20049;-66
2024/01/14 01:20:23;;;;;;;49.03;23.10;;;;;-0.10;98451.00;;;;5070178;28;20429;-65
2024/01/14 01:22:51;;;;;;;57.88;27.85;;;;;-0.10;98460.00;;;;5070335;28;20579;-66
2024/01/14 01:25:17;;;;;;;48.97;25.50;;;;;0.00;98467.00;;;;5070581;28;20465;-65
2024/01/14 01:27:44;;;;;;;52.42;23.58;;;;;0.00;98467.00;;;;5072116;28;20560;-67
2024/01/14 01:30:11;;;;;;;48.90;24.98;;;;;0.00;98463.00;;;;5073815;28;20044;-66
2024/01/14 01:32:38;;;;;;;54.13;23.95;;;;;-0.10;98462.00;;;;5073996;28;20044;-65
2024/01/14 01:35:05;;;;;;;53.63;25.05;;;;;-0.10;98458.00;;;;5074512;28;20044;-66
2024/01/14 01:37:32;;;;;;;53.30;24.23;;;;;0.00;98451.00;;;;5073854;28;20467;-67
2024/01/14 01:39:59;;;;;;;54.38;25.30;;;;;-0.10;98462.00;;;;5073850;28;20047;-66
2024/01/14 01:42:25;;;;;;;50.47;24.17;;;;;-0.10;98470.00;;;;5073901;28;20059;-65
2024/01/14 01:44:52;;;;;;;54.05;24.67;;;;;-0.10;98470.00;;;;5074264;28;20129;-67
2024/01/14 01:47:19;;;;;;;55.53;25.45;;;;;-0.10;98471.00;;;;5074997;28;20443;-66
2024/01/14 01:49:46;;;;;;;58.95;25.77;;;;;-0.10;98466.00;;;;5074736;28;20086;-65
2024/01/14 01:52:14;;;;;;;54.40;25.48;;;;;-0.10;98469.00;;;;5073640;28;20048;-65
2024/01/14 01:54:41;;;;;;;58.40;26.25;;;;;0.00;98454.00;;;;5072834;28;20040;-67
2024/01/14 01:57:09;;;;;;;56.65;25.63;;;;;0.00;98452.00;;;;5074531;28;20124;-67
2024/01/14 01:59:36;;;;;;;54.22;25.38;;;;;0.00;98448.00;;;;5073239;28;20064;-67
2024/01/14 02:02:04;;;;;;;55.60;24.50;;;;;0.00;98451.00;;;;5057036;28;20045;-69
2024/01/14 02:04:31;;;;;;;61.85;28.25;;;;;0.00;98445.00;;;;5072726;28;20044;-67
2024/01/14 02:06:58;;;;;;;56.33;26.45;;;;;0.00;98447.00;;;;5073437;28;20045;-66
2024/01/14 02:09:25;;;;;;;53.78;25.38;;;;;0.00;98443.00;;;;5073127;28;20056;-66
2024/01/14 02:11:51;;;;;;;58.20;27.83;;;;;0.00;98441.00;;;;5073382;28;20040;-66
2024/01/14 02:14:18;;;;;;;54.92;25.17;;;;;0.10;98441.00;;;;5073909;28;20094;-67
2024/01/14 02:16:45;;;;;;;62.47;26.70;;;;;0.00;98444.00;;;;5074520;28;20041;-67
2024/01/14 02:19:11;;;;;;;60.20;27.83;;;;;0.10;98435.00;;;;5074231;28;20053;-67
2024/01/14 02:22:03;;;;;;;53.90;25.02;;;;;0.30;98442.00;;;;5073035;28;20120;-65
2024/01/14 02:24:30;;;;;;;61.45;27.02;;;;;0.30;98439.00;;;;5073445;28;20037;-67
2024/01/14 02:26:57;;;;;;;61.17;25.92;;;;;0.20;98450.00;;;;5073874;28;20048;-65
2024/01/14 02:29:28;;;;;;;62.42;26.00;;;;;0.20;98446.00;;;;5056465;28;20485;-66
2024/01/14 02:31:55;;;;;;;58.78;25.65;;;;;0.20;98438.00;;;;5073976;28;20493;-66
2024/01/14 02:34:22;;;;;;;60.22;28.40;;;;;0.20;98425.00;;;;5073425;28;20408;-67
2024/01/14 02:36:49;;;;;;;56.92;25.38;;;;;0.20;98422.00;;;;5072963;28;20052;-67
2024/01/14 02:39:16;;;;;;;63.35;27.00;;;;;0.20;98418.00;;;;5073241;28;20050;-67
2024/01/14 02:41:43;;;;;;;59.80;27.35;;;;;0.10;98423.00;;;;5073995;28;20047;-67
2024/01/14 02:44:10;;;;;;;59.83;25.40;;;;;0.10;98427.00;;;;5073149;28;20060;-67
2024/01/14 02:46:38;;;;;;;68.43;26.42;;;;;0.00;98425.00;;;;5073697;28;20036;-67
2024/01/14 02:49:04;;;;;;;55.92;25.73;;;;;0.00;98418.00;;;;5073621;28;20079;-68
2024/01/14 02:51:31;;;;;;;55.88;26.40;;;;;0.00;98412.00;;;;5074045;28;20044;-66
2024/01/14 02:54:00;;;;;;;60.60;27.52;;;;;-0.10;98406.00;;;;5073063;28;20065;-68
2024/01/14 02:56:28;;;;;;;58.97;27.23;;;;;-0.10;98399.00;;;;5073393;28;20393;-66
2024/01/14 02:58:55;;;;;;;62.42;27.55;;;;;0.00;98405.00;;;;5072828;28;20047;-66
2024/01/14 03:01:22;;;;;;;55.75;25.42;;;;;0.20;98400.00;;;;5072896;28;20044;-65
2024/01/14 03:03:49;;;;;;;60.70;26.45;;;;;0.20;98394.00;;;;5072194;28;20130;-67
2024/01/14 03:06:16;;;;;;;59.75;27.27;;;;;0.20;98398.00;;;;5073988;28;20456;-66
2024/01/14 03:08:43;;;;;;;62.63;26.05;;;;;0.20;98395.00;;;;5073948;28;20106;-66
2024/01/14 03:11:10;;;;;;;51.95;24.58;;;;;0.30;98393.00;;;;5072843;28;20056;-66
2024/01/14 03:13:36;;;;;;;60.92;24.98;;;;;0.30;98390.00;;;;5055241;28;20143;-66
2024/01/14 03:16:03;;;;;;;61.15;26.60;;;;;0.30;98397.00;;;;5072176;28;20051;-68
2024/01/14 03:18:29;;;;;;;59.92;26.58;;;;;0.30;98394.00;;;;5073158;28;20040;-67
2024/01/14 03:20:57;;;;;;;63.45;26.38;;;;;0.30;98391.00;;;;5073722;28;20054;-66
2024/01/14 03:23:23;;;;;;;49.47;24.70;;;;;0.30;98393.00;;;;5071509;28;20048;-68
2024/01/14 03:25:50;;;;;;;55.67;25.23;;;;;0.20;98382.00;;;;5071641;28;20044;-66
2024/01/14 03:28:16;;;;;;;55.60;23.92;;;;;0.20;98387.00;;;;5072977;28;20131;-66
2024/01/14 03:30:44;;;;;;;57.63;24.67;;;;;0.20;98369.00;;;;5072038;28;20045;-66
2024/01/14 03:33:11;;;;;;;53.35;23.67;;;;;0.10;98376.00;;;;5071777;28;20055;-66
2024/01/14 03:35:37;;;;;;;54.92;23.42;;;;;0.10;98368.00;;;;5071380;28;20041;-67
2024/01/14 03:38:04;;;;;;;57.03;24.05;;;;;0.10;98380.00;;;;5073082;28;20058;-66
2024/01/14 03:40:31;;;;;;;55.22;24.75;;;;;0.00;98376.00;;;;5071800;28;20091;-66
2024/01/14 03:42:57;;;;;;;55.05;24.30;;;;;0.00;98378.00;;;;5071854;28;20126;-66
2024/01/14 03:45:25;;;;;;;50.55;21.40;;;;;0.00;98381.00;;;;5071387;28;20036;-67
2024/01/14 03:47:51;;;;;;;52.38;23.73;;;;;0.00;98378.00;;;;5071746;28;20044;-66
2024/01/14 03:50:18;;;;;;;53.70;23.45;;;;;0.00;98363.00;;;;5072126;28;20043;-66
2024/01/14 03:52:45;;;;;;;45.13;22.15;;;;;0.00;98374.00;;;;5072923;28;20049;-66
2024/01/14 03:55:11;;;;;;;50.22;24.13;;;;;0.00;98365.00;;;;5070872;28;20383;-66
2024/01/14 03:57:38;;;;;;;54.72;24.15;;;;;0.00;98372.00;;;;5071747;28;20048;-67
2024/01/14 04:00:07;;;;;;;58.13;23.73;;;;;0.00;98352.00;;;;5071540;28;20040;-66
2024/01/14 04:02:33;;;;;;;50.20;23.15;;;;;0.00;98362.00;;;;5072924;28;20047;-66
2024/01/14 04:05:00;;;;;;;58.10;25.75;;;;;0.00;98368.00;;;;5072340;28;20120;-66
2024/01/14 04:07:26;;;;;;;53.75;24.27;;;;;0.10;98367.00;;;;5072541;28;20127;-68
2024/01/14 04:09:53;;;;;;;59.30;24.70;;;;;0.10;98356.00;;;;5072725;28;20040;-66
2024/01/14 04:12:20;;;;;;;50.25;25.00;;;;;0.00;98370.00;;;;5071636;28;20151;-66
2024/01/14 04:14:46;;;;;;;56.10;26.23;;;;;0.00;98367.00;;;;5072437;28;20060;-67
2024/01/14 04:17:13;;;;;;;58.00;24.77;;;;;0.00;98373.00;;;;5071464;28;20055;-66
2024/01/14 04:19:40;;;;;;;56.05;24.65;;;;;0.00;98382.00;;;;5071478;28;20501;-66
2024/01/14 04:22:06;;;;;;;57.78;26.00;;;;;-0.10;98362.00;;;;5071271;28;20057;-66
2024/01/14 04:24:33;;;;;;;61.28;25.17;;;;;-0.10;98362.00;;;;5070813;28;20079;-67
2024/01/14 04:26:59;;;;;;;59.53;24.67;;;;;-0.20;98367.00;;;;5071026;28;20079;-66
2024/01/14 04:29:26;;;;;;;57.65;25.67;;;;;-0.10;98370.00;;;;5071167;28;20418;-66
2024/01/14 04:31:53;;;;;;;62.97;26.25;;;;;-0.20;98358.00;;;;5072278;28;20132;-66
2024/01/14 04:34:20;;;;;;;58.28;26.23;;;;;-0.10;98355.00;;;;5071842;28;20057;-66
2024/01/14 04:36:46;;;;;;;54.58;25.13;;;;;0.00;98365.00;;;;5072382;28;20048;-67
2024/01/14 04:39:13;;;;;;;54.72;23.08;;;;;0.10;98358.00;;;;5072125;28;20056;-66
2024/01/14 04:41:40;;;;;;;58.78;24.65;;;;;0.10;98361.00;;;;5072498;28;20398;-67
2024/01/14 04:44:07;;;;;;;61.83;26.45;;;;;-0.10;98346.00;;;;5071470;28;20461;-66
2024/01/14 04:46:33;;;;;;;57.80;26.27;;;;;-0.10;98352.00;;;;5072163;28;20398;-67
2024/01/14 04:49:00;;;;;;;56.35;23.73;;;;;-0.10;98347.00;;;;5071047;28;20123;-66
2024/01/14 04:51:28;;;;;;;57.08;24.58;;;;;-0.10;98341.00;;;;5071211;28;20409;-66
2024/01/14 04:53:54;;;;;;;63.13;26.83;;;;;-0.10;98339.00;;;;5070468;28;20498;-66
2024/01/14 04:56:21;;;;;;;53.85;24.92;;;;;0.00;98336.00;;;;5072232;28;20058;-66
2024/01/14 04:58:48;;;;;;;57.38;24.98;;;;;0.00;98331.00;;;;5070980;28;20040;-67
2024/01/14 05:01:14;;;;;;;61.63;25.80;;;;;0.00;98335.00;;;;5073515;28;20079;-66
2024/01/14 05:03:42;;;;;;;59.13;25.00;;;;;-0.10;98332.00;;;;5058178;28;20048;-66
2024/01/14 05:06:10;;;;;;;60.53;25.85;;;;;0.00;98337.00;;;;5075215;28;20397;-67
2024/01/14 05:08:40;;;;;;;58.58;25.60;;;;;0.00;98325.00;;;;5076223;28;20048;-66
2024/01/14 05:11:07;;;;;;;56.08;23.80;;;;;0.00;98332.00;;;;5076329;28;20052;-66
2024/01/14 05:13:33;;;;;;;53.67;24.85;;;;;0.00;98314.00;;;;5075770;28;20047;-66
2024/01/14 05:16:00;;;;;;;57.20;23.77;;;;;0.10;98321.00;;;;5074491;28;20494;-68
2024/01/14 05:18:27;;;;;;;59.92;25.88;;;;;0.20;98326.00;;;;5074325;28;20415;-67
2024/01/14 05:20:53;;;;;;;59.55;25.10;;;;;0.10;98319.00;;;;5074479;28;20140;-67
2024/01/14 05:23:21;;;;;;;54.53;23.70;;;;;0.10;98321.00;;;;5075674;28;20063;-67
2024/01/14 05:25:48;;;;;;;60.25;24.38;;;;;0.00;98334.00;;;;5074152;28;20041;-67
2024/01/14 05:28:14;;;;;;;55.63;24.52;;;;;0.00;98325.00;;;;5075553;28;20044;-67
2024/01/14 05:30:41;;;;;;;60.00;26.17;;;;;0.00;98327.00;;;;5075576;28;20468;-67
2024/01/14 05:33:07;;;;;;;56.13;23.88;;;;;0.00;98319.00;;;;5075524;28;20049;-67
2024/01/14 05:35:34;;;;;;;64.15;25.45;;;;;0.00;98311.00;;;;5074898;28;20048;-67
2024/01/14 05:38:01;;;;;;;62.47;25.17;;;;;0.00;98312.00;;;;5075420;28;20049;-67
2024/01/14 05:40:27;;;;;;;63.15;24.67;;;;;0.00;98299.00;;;;5073988;28;20464;-67
2024/01/14 05:42:54;;;;;;;62.45;25.88;;;;;-0.10;98299.00;;;;5075301;28;20074;-67
2024/01/14 05:45:20;;;;;;;55.80;24.55;;;;;-0.10;98306.00;;;;5074465;28;20048;-67
2024/01/14 05:47:47;;;;;;;56.28;24.75;;;;;-0.10;98310.00;;;;5075076;28;20064;-66
2024/01/14 05:50:14;;;;;;;58.97;25.00;;;;;-0.10;98302.00;;;;5074961;28;20048;-67
2024/01/14 05:52:40;;;;;;;65.45;26.02;;;;;0.00;98293.00;;;;5075110;28;20513;-67
2024/01/14 05:55:08;;;;;;;60.15;24.75;;;;;0.00;98290.00;;;;5074354;28;20044;-67
2024/01/14 05:57:34;;;;;;;61.95;25.27;;;;;-0.10;98291.00;;;;5075513;28;20086;-67
2024/01/14 06:00:02;;;;;;;58.67;24.08;;;;;-0.20;98289.00;;;;5073920;28;20079;-67
2024/01/14 06:02:32;;;;;;;58.10;23.77;;;;;-0.20;98286.00;;;;5073906;28;20063;-67
2024/01/14 06:04:58;;;;;;;60.00;22.70;;;;;-0.20;98275.00;;;;5074531;28;20048;-67
2024/01/14 06:07:25;;;;;;;63.08;24.73;;;;;-0.20;98271.00;;;;5073863;28;20040;-67
2024/01/14 06:09:51;;;;;;;55.60;23.00;;;;;-0.20;98263.00;;;;5073775;28;20450;-68
2024/01/14 06:12:19;;;;;;;57.53;23.13;;;;;-0.30;98278.00;;;;5074916;28;20520;-67
2024/01/14 06:14:45;;;;;;;59.38;24.08;;;;;-0.30;98269.00;;;;5074624;28;20048;-67
2024/01/14 06:17:12;;;;;;;58.95;23.92;;;;;-0.30;98271.00;;;;5074248;28;20131;-66
2024/01/14 06:19:41;;;;;;;57.40;24.55;;;;;-0.30;98270.00;;;;5074005;28;20052;-67
2024/01/14 06:22:07;;;;;;;61.42;24.10;;;;;-0.30;98266.00;;;;5075121;28;20115;-67
2024/01/14 06:24:34;;;;;;;64.70;24.90;;;;;-0.30;98272.00;;;;5057167;28;20106;-67
2024/01/14 06:27:02;;;;;;;58.63;24.08;;;;;-0.40;98268.00;;;;5095172;28;20051;-66
2024/01/14 06:29:29;;;;;;;62.92;25.17;;;;;-0.30;98266.00;;;;5100268;28;20080;-66
2024/01/14 06:31:58;;;;;;;64.75;25.05;;;;;-0.30;98258.00;;;;5099355;28;20041;-67
2024/01/14 06:34:25;;;;;;;63.50;23.23;;;;;-0.40;98261.00;;;;5099416;28;20028;-66
2024/01/14 06:36:52;;;;;;;63.83;24.70;;;;;-0.40;98252.00;;;;5099256;28;20045;-66
2024/01/14 06:39:18;;;;;;;62.00;24.27;;;;;-0.40;98249.00;;;;5099069;28;20065;-66
2024/01/14 06:41:45;;;;;;;63.63;23.30;;;;;-0.30;98242.00;;;;5098112;28;20036;-67
2024/01/14 06:44:14;;;;;;;57.50;23.83;;;;;-0.30;98243.00;;;;5075646;28;20408;-67
2024/01/14 06:46:44;;;;;;;58.97;22.65;;;;;-0.20;98240.00;;;;5074072;28;20041;-66
2024/01/14 06:49:11;;;;;;;57.45;24.15;;;;;-0.10;98245.00;;;;5072717;28;20049;-66
2024/01/14 06:51:45;;;;;;;59.35;23.92;;;;;-0.10;98240.00;;;;5072812;28;20054;-67
2024/01/14 06:54:12;;;;;;;66.70;25.55;;;;;-0.10;98235.00;;;;5073218;28;20044;-67
2024/01/14 06:56:45;;;;;;;65.32;25.02;;;;;-0.10;98235.00;;;;5073602;28;20089;-67
2024/01/14 06:59:21;;;;;;;65.93;23.93;;;;;-0.10;98231.00;;;;5072316;28;20055;-67
2024/01/14 07:01:48;;;;;;;57.63;23.40;;;;;0.00;98221.00;;;;5073727;28;20119;-67
2024/01/14 07:04:16;;;;;;;55.83;24.55;;;;;0.00;98222.00;;;;5071746;28;20059;-67
2024/01/14 07:06:43;;;;;;;58.88;23.75;;;;;-0.10;98218.00;;;;5073734;28;20032;-67
2024/01/14 07:09:12;;;;;;;57.67;24.08;;;;;-0.10;98224.00;;;;5072558;28;20462;-67
2024/01/14 07:11:38;;;;;;;55.83;22.48;;;;;-0.20;98223.00;;;;5072280;28;20543;-67
2024/01/14 07:14:05;;;;;;;51.08;21.50;;;;;-0.20;98214.00;;;;5073262;28;20466;-67
2024/01/14 07:16:31;;;;;;;54.78;22.70;;;;;-0.10;98216.00;;;;5072446;28;20063;-67
2024/01/14 07:18:58;;;;;;;57.20;23.58;;;;;-0.20;98209.00;;;;5072286;28;20045;-66
2024/01/14 07:21:25;;;;;;;56.28;21.48;;;;;-0.20;98210.00;;;;5072227;28;20115;-66
2024/01/14 07:23:52;;;;;;;55.25;23.92;;;;;-0.20;98209.00;;;;5054984;28;20054;-66
2024/01/14 07:26:19;;;;;;;53.72;21.95;;;;;-0.20;98213.00;;;;5073302;28;20082;-66
2024/01/14 07:28:52;;;;;;;50.30;22.08;;;;;-0.10;98210.00;;;;5072122;28;20131;-66
2024/01/14 07:31:22;;;;;;;55.35;22.60;;;;;-0.10;98210.00;;;;5071988;28;20044;-66
2024/01/14 07:33:52;;;;;;;51.75;20.42;;;;;-0.10;98210.00;;;;5072802;28;20052;-66
2024/01/14 07:36:20;;;;;;;51.58;20.90;;;;;-0.20;98209.00;;;;5073345;28;20037;-66
2024/01/14 07:38:47;;;;;;;47.35;19.52;;;;;-0.30;98209.00;;;;5073020;28;20072;-66
2024/01/14 07:41:15;;;;;;;45.60;18.90;;;;;-0.30;98207.00;;;;5073099;28;20469;-68
2024/01/14 07:43:43;;;;;;;48.22;20.08;;;;;-0.40;98210.00;;;;5071234;28;20048;-66
2024/01/14 07:46:10;;;;;;;47.50;17.52;;;;;-0.40;98209.00;;;;5071735;28;20051;-66
2024/01/14 07:48:37;;;;;;;45.38;18.73;;;;;-0.40;98207.00;;;;5071725;28;20078;-68
2024/01/14 07:51:04;;;;;;;44.63;18.60;;;;;-0.40;98206.00;;;;5071745;28;20059;-66
2024/01/14 07:53:31;;;;;;;53.58;20.85;;;;;-0.40;98201.00;;;;5071205;28;20051;-66
2024/01/14 07:55:58;;;;;;;48.08;19.83;;;;;-0.40;98194.00;;;;5071829;28;20051;-66
2024/01/14 07:58:24;;;;;;;49.33;20.60;;;;;-0.30;98210.00;;;;5071564;28;20055;-66
2024/01/14 08:00:52;;;;;;;43.10;18.50;;;;;-0.30;98203.00;;;;5073291;28;20083;-68
2024/01/14 08:03:32;;;;;;;44.90;19.10;;;;;-0.40;98206.00;;;;5071122;28;20053;-68
2024/01/14 08:05:59;;;;;;;47.90;20.73;;;;;-0.40;98188.00;;;;5073045;28;20386;-68
2024/01/14 08:08:27;;;;;;;49.53;19.27;;;;;-0.40;98176.00;;;;5072534;28;20445;-66
2024/01/14 08:10:54;;;;;;;48.00;18.73;;;;;-0.20;98186.00;;;;5074906;28;20044;-65
2024/01/14 08:13:21;;;;;;;45.13;18.63;;;;;-0.10;98194.00;;;;5073722;28;20127;-65
2024/01/14 08:15:47;;;;;;;43.80;18.15;;;;;-0.10;98187.00;;;;5072554;28;20045;-65
2024/01/14 08:18:28;;;;;;;40.42;16.33;;;;;-0.10;98183.00;;;;5074928;28;20427;-65
2024/01/14 08:20:55;;;;;;;40.30;16.20;;;;;-0.20;98194.00;;;;5075136;28;20051;-65
2024/01/14 08:23:22;;;;;;;39.13;16.88;;;;;-0.20;98189.00;;;;5075282;28;20070;-66
2024/01/14 08:25:48;;;;;;;40.95;16.42;;;;;-0.30;98188.00;;;;5074406;28;20425;-65
2024/01/14 08:28:15;;;;;;;39.10;16.98;;;;;-0.30;98179.00;;;;5077090;28;20539;-65
2024/01/14 08:30:42;;;;;;;45.35;18.00;;;;;-0.20;98184.00;;;;5075673;28;20040;-65
2024/01/14 08:33:08;;;;;;;37.40;16.60;;;;;-0.30;98180.00;;;;5055662;28;20437;-64
2024/01/14 08:35:35;;;;;;;42.65;16.55;;;;;-0.30;98179.00;;;;5074009;28;20062;-65
2024/01/14 08:38:02;;;;;;;36.50;15.10;;;;;-0.30;98175.00;;;;5076162;28;20050;-65
2024/01/14 08:40:28;;;;;;;37.47;15.13;;;;;-0.40;98177.00;;;;5075080;28;20045;-65
2024/01/14 08:42:55;;;;;;;32.78;13.80;;;;;-0.40;98166.00;;;;5074650;28;20076;-65
2024/01/14 08:45:22;;;;;;;39.50;15.43;;;;;-0.30;98166.00;;;;5073405;28;20056;-65
2024/01/14 08:47:51;;;;;;;36.22;15.13;;;;;-0.30;98169.00;;;;5073773;28;20041;-64
2024/01/14 08:50:18;;;;;;;39.20;16.25;;;;;-0.40;98161.00;;;;5073419;28;20052;-65
2024/01/14 08:52:45;;;;;;;39.70;16.77;;;;;-0.40;98162.00;;;;5075229;28;20114;-65
2024/01/14 08:55:13;;;;;;;36.80;15.35;;;;;-0.40;98160.00;;;;5072210;28;20064;-65
2024/01/14 08:57:40;;;;;;;35.95;15.55;;;;;-0.30;98163.00;;;;5072347;28;20120;-65
2024/01/14 09:00:11;;;;;;;37.30;14.32;;;;;-0.30;98163.00;;;;5071212;28;20553;-65
2024/01/14 09:02:39;;;;;;;38.20;14.95;;;;;-0.30;98158.00;;;;5071123;28;20084;-65
2024/01/14 09:05:06;;;;;;;36.78;15.82;;;;;-0.30;98168.00;;;;5071684;28;20478;-65
2024/01/14 09:07:33;;;;;;;39.95;15.32;;;;;-0.30;98168.00;;;;5071904;28;20074;-65
2024/01/14 09:10:00;;;;;;;36.13;14.30;;;;;-0.20;98166.00;;;;5072131;28;20045;-65
2024/01/14 09:12:27;;;;;;;39.65;15.63;;;;;-0.20;98159.00;;;;5071152;28;20053;-65
2024/01/14 09:14:54;;;;;;;35.50;15.02;;;;;-0.20;98162.00;;;;5071334;28;20114;-64
2024/01/14 09:17:21;;;;;;;32.03;13.85;;;;;-0.10;98167.00;;;;5071672;28;20055;-65
2024/01/14 09:19:47;;;;;;;36.40;14.80;;;;;0.00;98175.00;;;;5070149;28;20222;-65
2024/01/14 09:22:14;;;;;;;36.50;15.25;;;;;0.00;98158.00;;;;5071798;28;20060;-66
2024/01/14 09:24:45;;;;;;;32.72;14.60;;;;;0.00;98167.00;;;;5070635;28;20123;-65
2024/01/14 09:27:13;;;;;;;32.47;14.10;;;;;0.00;98164.00;;;;5070242;28;20044;-65
2024/01/14 09:29:40;;;;;;;34.13;14.75;;;;;0.00;98164.00;;;;5071510;28;20486;-66
2024/01/14 09:32:07;;;;;;;37.67;14.82;;;;;0.10;98168.00;;;;5071591;28;20041;-66
2024/01/14 09:34:33;;;;;;;32.78;15.00;;;;;0.20;98165.00;;;;5069734;28;20155;-66
2024/01/14 09:37:00;;;;;;;33.97;13.85;;;;;0.10;98158.00;;;;5070199;28;20044;-66
2024/01/14 09:39:27;;;;;;;27.83;13.68;;;;;0.20;98169.00;;;;5071395;28;20055;-65
2024/01/14 09:42:12;;;;;;;30.25;14.32;;;;;0.10;98169.00;;;;5070609;28;20045;-65
2024/01/14 09:44:40;;;;;;;35.95;14.45;;;;;0.00;98165.00;;;;5071141;28;20093;-65
2024/01/14 09:47:11;;;;;;;33.03;13.57;;;;;0.00;98160.00;;;;5071506;28;20047;-66
2024/01/14 09:49:38;;;;;;;32.58;14.38;;;;;0.00;98166.00;;;;5074728;28;20055;-66
2024/01/14 09:52:06;;;;;;;31.90;13.35;;;;;0.00;98161.00;;;;5075469;28;20051;-66
2024/01/14 09:54:35;;;;;;;31.95;14.88;;;;;0.00;98169.00;;;;5073583;28;20123;-65
2024/01/14 09:57:09;;;;;;;30.38;13.60;;;;;0.00;98162.00;;;;5073514;28;20063;-65
2024/01/14 09:59:39;;;;;;;32.22;13.77;;;;;0.00;98166.00;;;;5073596;28;20048;-65
2024/01/14 10:02:07;;;;;;;31.88;14.13;;;;;0.00;98158.00;;;;5073694;28;20049;-65
2024/01/14 10:04:34;;;;;;;30.75;13.57;;;;;0.00;98159.00;;;;5074223;28;20067;-65
2024/01/14 10:07:01;;;;;;;30.98;14.88;;;;;0.00;98160.00;;;;5074525;28;20445;-66
2024/01/14 10:09:28;;;;;;;35.10;16.38;;;;;0.00;98150.00;;;;5074590;28;20473;-65
2024/01/14 10:11:54;;;;;;;30.48;13.27;;;;;0.10;98155.00;;;;5073145;28;20563;-65
2024/01/14 10:14:26;;;;;;;31.52;13.65;;;;;0.00;98142.00;;;;5072385;28;20044;-65
2024/01/14 10:16:59;;;;;;;28.50;13.02;;;;;0.00;98140.00;;;;5074506;28;20123;-65
2024/01/14 10:19:26;;;;;;;37.72;14.88;;;;;0.00;98140.00;;;;5074192;28;20040;-64
2024/01/14 10:21:54;;;;;;;34.08;14.88;;;;;0.00;98138.00;;;;5073336;28;20053;-64
2024/01/14 10:24:41;;;;;;;34.45;13.63;;;;;0.00;98136.00;;;;5072716;28;20044;-65
2024/01/14 10:27:10;;;;;;;32.55;15.15;;;;;-0.10;98143.00;;;;5072967;28;20048;-66
2024/01/14 10:29:37;;;;;;;42.70;22.98;;;;;0.00;98150.00;;;;5074321;28;20040;-65
2024/01/14 10:32:03;;;;;;;32.33;13.70;;;;;0.00;98130.00;;;;5074596;28;20043;-65
2024/01/14 10:34:30;;;;;;;30.65;13.57;;;;;0.00;98119.00;;;;5073846;28;20123;-65
2024/01/14 10:37:01;;;;;;;31.73;14.52;;;;;0.10;98112.00;;;;5074302;28;20068;-65
2024/01/14 10:39:31;;;;;;;30.92;13.95;;;;;0.10;98113.00;;;;5074360;28;20054;-65
2024/01/14 10:41:59;;;;;;;25.00;12.82;;;;;0.20;98097.00;;;;5074027;28;20040;-65
2024/01/14 10:44:25;;;;;;;25.98;12.07;;;;;0.30;98105.00;;;;5072411;28;20405;-65
2024/01/14 10:46:53;;;;;;;30.73;13.90;;;;;0.20;98103.00;;;;5074088;28;20052;-65
2024/01/14 10:49:30;;;;;;;27.92;12.07;;;;;0.20;98095.00;;;;5072349;28;20517;-65
2024/01/14 10:52:10;;;;;;;25.73;12.07;;;;;0.00;98095.00;;;;5073726;28;20538;-65
2024/01/14 10:54:55;;;;;;;25.75;11.73;;;;;0.00;98085.00;;;;5073074;28;20102;-65
2024/01/14 10:57:36;;;;;;;24.90;12.38;;;;;0.10;98074.00;;;;5073599;28;20132;-66
2024/01/14 11:00:10;;;;;;;26.13;12.05;;;;;0.10;98075.00;;;;5072106;28;20049;-65
2024/01/14 11:02:39;;;;;;;25.38;11.77;;;;;0.10;98061.00;;;;5072348;28;20044;-65
2024/01/14 11:05:08;;;;;;;24.17;11.82;;;;;0.10;98057.00;;;;5072893;28;20098;-65
2024/01/14 11:07:35;;;;;;;28.90;11.57;;;;;0.20;98053.00;;;;5072487;28;20481;-65
2024/01/14 11:10:03;;;;;;;26.13;11.80;;;;;0.20;98057.00;;;;5072674;28;20052;-65
2024/01/14 11:12:48;;;;;;;23.00;10.70;;;;;0.30;98054.00;;;;5072627;28;20127;-63
2024/01/14 11:15:31;;;;;;;22.35;10.90;;;;;0.30;98048.00;;;;5073286;28;20101;-66
2024/01/14 11:18:04;;;;;;;25.55;12.35;;;;;0.30;98037.00;;;;5073435;28;20037;-65
2024/01/14 11:20:35;;;;;;;26.17;12.07;;;;;0.30;98035.00;;;;5073057;28;20051;-67
2024/01/14 11:23:22;;;;;;;28.75;13.27;;;;;0.30;98037.00;;;;5072748;28;20139;-70
2024/01/14 11:25:49;;;;;;;28.00;12.82;;;;;0.20;98018.00;;;;5072849;28;20127;-69
2024/01/14 11:28:15;;;;;;;31.67;14.20;;;;;0.30;98023.00;;;;5074194;28;20040;-67
2024/01/14 11:30:59;;;;;;;29.30;13.63;;;;;0.40;98012.00;;;;5076292;28;20055;-67
2024/01/14 11:33:42;;;;;;;26.42;11.95;;;;;0.40;98008.00;;;;5076768;28;20055;-67
2024/01/14 11:36:10;;;;;;;31.67;15.30;;;;;0.50;98005.00;;;;5081573;28;20041;-66
2024/01/14 11:38:45;;;;;;;25.50;12.95;;;;;0.60;97994.00;;;;5078461;28;20041;-67
2024/01/14 11:41:25;;;;;;;27.90;13.38;;;;;0.60;97994.00;;;;5076336;28;20075;-66
2024/01/14 11:43:55;;;;;;;25.92;12.68;;;;;0.60;97990.00;;;;5076251;28;20044;-66
2024/01/14 11:46:34;;;;;;;26.45;11.38;;;;;0.60;97981.00;;;;5075343;28;20050;-66
2024/01/14 11:49:03;;;;;;;30.10;13.02;;;;;0.60;97981.00;;;;5074769;28;20063;-64
2024/01/14 11:51:51;;;;;;;26.45;12.55;;;;;0.50;97974.00;;;;5079705;28;20074;-65
2024/01/14 11:54:18;;;;;;;29.70;12.65;;;;;0.50;97966.00;;;;5059220;28;20058;-66
2024/01/14 11:56:47;;;;;;;24.42;11.27;;;;;0.50;97973.00;;;;5080279;28;20048;-65
2024/01/14 11:59:14;;;;;;;29.98;14.40;;;;;0.60;97961.00;;;;5076012;28;20036;-64
2024/01/14 12:02:00;;;;;;;28.55;16.50;;;;;0.60;97960.00;;;;5075135;28;20044;-66
2024/01/14 12:04:27;;;;;;;24.73;12.25;;;;;0.60;97955.00;;;;5073179;28;20045;-64
2024/01/14 12:06:55;;;;;;;27.58;13.07;;;;;0.60;97950.00;;;;5074967;28;20677;-64
2024/01/14 12:09:22;;;;;;;24.48;12.70;;;;;0.50;97948.00;;;;5079682;28;20041;-65
2024/01/14 12:11:49;;;;;;;25.67;12.25;;;;;0.40;97937.00;;;;5076357;28;20576;-64